sensor_id;sensor_type;location;lat;lon;timestamp;P1;durP1;ratioP1;P2;durP2;ratioP2
7047;SDS011;3565;53.254;10.352;2024-03-23T00:52:38;15.23;;;4.47;;
7047;SDS011;3565;53.254;10.352;2024-03-23T00:55:08;19.83;;;5.00;;
7047;SDS011;3565;53.254;10.352;2024-03-23T01:00:15;28.50;;;5.20;;
7047;SDS011;3565;53.254;10.352;2024-03-23T01:02:44;19.10;;;4.67;;
7047;SDS011;3565;53.254;10.352;2024-03-23T01:05:13;20.60;;;4.80;;
7047;SDS011;3565;53.254;10.352;2024-03-23T01:10:19;25.67;;;4.27;;
7047;SDS011;3565;53.254;10.352;2024-03-23T01:12:49;26.30;;;5.27;;
7047;SDS011;3565;53.254;10.352;2024-03-23T01:15:17;17.40;;;4.50;;
7047;SDS011;3565;53.254;10.352;2024-03-23T01:20:24;22.33;;;4.53;;
7047;SDS011;3565;53.254;10.352;2024-03-23T01:22:53;23.93;;;5.10;;
7047;SDS011;3565;53.254;10.352;2024-03-23T01:25:22;14.93;;;4.63;;
7047;SDS011;3565;53.254;10.352;2024-03-23T01:30:29;22.47;;;4.80;;
7047;SDS011;3565;53.254;10.352;2024-03-23T01:32:58;20.20;;;5.00;;
7047;SDS011;3565;53.254;10.352;2024-03-23T01:38:04;12.53;;;3.97;;
7047;SDS011;3565;53.254;10.352;2024-03-23T01:40:33;23.23;;;4.60;;
7047;SDS011;3565;53.254;10.352;2024-03-23T01:43:03;15.20;;;4.40;;
7047;SDS011;3565;53.254;10.352;2024-03-23T01:48:12;29.03;;;4.57;;
7047;SDS011;3565;53.254;10.352;2024-03-23T01:50:41;18.83;;;4.67;;
7047;SDS011;3565;53.254;10.352;2024-03-23T01:53:10;18.07;;;4.57;;
7047;SDS011;3565;53.254;10.352;2024-03-23T01:55:40;15.30;;;4.37;;
7047;SDS011;3565;53.254;10.352;2024-03-23T01:58:09;18.67;;;4.20;;
7047;SDS011;3565;53.254;10.352;2024-03-23T02:03:24;16.23;;;4.60;;
7047;SDS011;3565;53.254;10.352;2024-03-23T02:08:31;15.00;;;4.73;;
7047;SDS011;3565;53.254;10.352;2024-03-23T02:11:00;14.97;;;4.27;;
7047;SDS011;3565;53.254;10.352;2024-03-23T02:16:06;20.83;;;5.43;;
7047;SDS011;3565;53.254;10.352;2024-03-23T02:21:14;16.67;;;4.60;;
7047;SDS011;3565;53.254;10.352;2024-03-23T02:26:20;17.13;;;4.40;;
7047;SDS011;3565;53.254;10.352;2024-03-23T02:28:50;21.50;;;5.07;;
7047;SDS011;3565;53.254;10.352;2024-03-23T02:31:19;20.67;;;4.63;;
7047;SDS011;3565;53.254;10.352;2024-03-23T02:36:25;13.00;;;3.63;;
7047;SDS011;3565;53.254;10.352;2024-03-23T02:38:54;12.70;;;4.50;;
7047;SDS011;3565;53.254;10.352;2024-03-23T02:41:23;16.70;;;4.60;;
7047;SDS011;3565;53.254;10.352;2024-03-23T02:46:29;14.53;;;4.23;;
7047;SDS011;3565;53.254;10.352;2024-03-23T02:48:59;12.13;;;3.80;;
7047;SDS011;3565;53.254;10.352;2024-03-23T02:51:30;19.40;;;4.73;;
7047;SDS011;3565;53.254;10.352;2024-03-23T02:54:08;25.83;;;5.73;;
7047;SDS011;3565;53.254;10.352;2024-03-23T02:59:14;18.73;;;4.37;;
7047;SDS011;3565;53.254;10.352;2024-03-23T03:01:43;22.43;;;4.47;;
7047;SDS011;3565;53.254;10.352;2024-03-23T03:04:12;17.97;;;4.83;;
7047;SDS011;3565;53.254;10.352;2024-03-23T03:09:18;24.03;;;4.97;;
7047;SDS011;3565;53.254;10.352;2024-03-23T03:11:47;17.43;;;4.27;;
7047;SDS011;3565;53.254;10.352;2024-03-23T03:14:16;18.07;;;4.80;;
7047;SDS011;3565;53.254;10.352;2024-03-23T03:19:23;18.10;;;4.67;;
7047;SDS011;3565;53.254;10.352;2024-03-23T03:21:52;17.57;;;4.23;;
7047;SDS011;3565;53.254;10.352;2024-03-23T03:24:21;13.57;;;4.50;;
7047;SDS011;3565;53.254;10.352;2024-03-23T03:29:27;13.60;;;3.80;;
7047;SDS011;3565;53.254;10.352;2024-03-23T03:31:59;15.33;;;4.27;;
7047;SDS011;3565;53.254;10.352;2024-03-23T03:37:05;14.53;;;4.07;;
7047;SDS011;3565;53.254;10.352;2024-03-23T03:39:34;19.00;;;4.53;;
7047;SDS011;3565;53.254;10.352;2024-03-23T03:42:04;15.93;;;4.43;;
7047;SDS011;3565;53.254;10.352;2024-03-23T03:44:34;14.03;;;4.40;;
7047;SDS011;3565;53.254;10.352;2024-03-23T03:47:03;18.47;;;5.00;;
7047;SDS011;3565;53.254;10.352;2024-03-23T03:49:36;20.17;;;4.53;;
7047;SDS011;3565;53.254;10.352;2024-03-23T03:52:06;15.40;;;4.50;;
7047;SDS011;3565;53.254;10.352;2024-03-23T03:54:35;23.60;;;5.80;;
7047;SDS011;3565;53.254;10.352;2024-03-23T03:57:04;14.13;;;4.20;;
7047;SDS011;3565;53.254;10.352;2024-03-23T04:02:11;15.57;;;4.07;;
7047;SDS011;3565;53.254;10.352;2024-03-23T04:04:41;15.90;;;4.27;;
7047;SDS011;3565;53.254;10.352;2024-03-23T04:07:12;17.97;;;4.43;;
7047;SDS011;3565;53.254;10.352;2024-03-23T04:09:50;15.10;;;4.30;;
7047;SDS011;3565;53.254;10.352;2024-03-23T04:12:20;12.53;;;3.60;;
7047;SDS011;3565;53.254;10.352;2024-03-23T04:14:49;16.97;;;4.00;;
7047;SDS011;3565;53.254;10.352;2024-03-23T04:19:56;16.90;;;4.20;;
7047;SDS011;3565;53.254;10.352;2024-03-23T04:22:25;11.80;;;4.03;;
7047;SDS011;3565;53.254;10.352;2024-03-23T04:24:56;16.30;;;3.90;;
7047;SDS011;3565;53.254;10.352;2024-03-23T04:27:25;15.33;;;4.23;;
7047;SDS011;3565;53.254;10.352;2024-03-23T04:32:35;17.60;;;4.40;;
7047;SDS011;3565;53.254;10.352;2024-03-23T04:35:05;10.23;;;3.77;;
7047;SDS011;3565;53.254;10.352;2024-03-23T04:40:13;19.10;;;5.30;;
7047;SDS011;3565;53.254;10.352;2024-03-23T04:42:42;12.93;;;3.90;;
7047;SDS011;3565;53.254;10.352;2024-03-23T04:45:11;11.87;;;4.63;;
7047;SDS011;3565;53.254;10.352;2024-03-23T04:50:19;18.60;;;4.87;;
7047;SDS011;3565;53.254;10.352;2024-03-23T04:52:49;16.43;;;5.10;;
7047;SDS011;3565;53.254;10.352;2024-03-23T04:55:18;20.93;;;4.73;;
7047;SDS011;3565;53.254;10.352;2024-03-23T05:00:26;13.17;;;4.43;;
7047;SDS011;3565;53.254;10.352;2024-03-23T05:02:56;16.40;;;4.60;;
7047;SDS011;3565;53.254;10.352;2024-03-23T05:05:25;16.13;;;4.57;;
7047;SDS011;3565;53.254;10.352;2024-03-23T05:07:55;15.03;;;4.20;;
7047;SDS011;3565;53.254;10.352;2024-03-23T05:10:34;12.63;;;4.93;;
7047;SDS011;3565;53.254;10.352;2024-03-23T05:13:03;22.40;;;5.23;;
7047;SDS011;3565;53.254;10.352;2024-03-23T05:15:33;17.17;;;4.67;;
7047;SDS011;3565;53.254;10.352;2024-03-23T05:20:39;15.27;;;4.20;;
7047;SDS011;3565;53.254;10.352;2024-03-23T05:23:08;18.43;;;4.60;;
7047;SDS011;3565;53.254;10.352;2024-03-23T05:25:39;13.97;;;4.47;;
7047;SDS011;3565;53.254;10.352;2024-03-23T05:28:09;15.30;;;3.83;;
7047;SDS011;3565;53.254;10.352;2024-03-23T05:33:19;14.10;;;4.47;;
7047;SDS011;3565;53.254;10.352;2024-03-23T05:35:56;19.80;;;4.87;;
7047;SDS011;3565;53.254;10.352;2024-03-23T05:41:03;16.30;;;4.60;;
7047;SDS011;3565;53.254;10.352;2024-03-23T05:43:33;12.03;;;4.20;;
7047;SDS011;3565;53.254;10.352;2024-03-23T05:46:11;16.53;;;4.27;;
7047;SDS011;3565;53.254;10.352;2024-03-23T05:51:19;12.13;;;4.17;;
7047;SDS011;3565;53.254;10.352;2024-03-23T05:53:52;25.13;;;4.20;;
7047;SDS011;3565;53.254;10.352;2024-03-23T05:56:31;17.67;;;4.43;;
7047;SDS011;3565;53.254;10.352;2024-03-23T06:01:39;16.07;;;4.40;;
7047;SDS011;3565;53.254;10.352;2024-03-23T06:04:10;16.77;;;4.70;;
7047;SDS011;3565;53.254;10.352;2024-03-23T06:06:39;14.97;;;4.03;;
7047;SDS011;3565;53.254;10.352;2024-03-23T06:09:18;16.07;;;5.27;;
7047;SDS011;3565;53.254;10.352;2024-03-23T06:11:48;14.63;;;4.03;;
7047;SDS011;3565;53.254;10.352;2024-03-23T06:14:17;15.60;;;4.10;;
7047;SDS011;3565;53.254;10.352;2024-03-23T06:19:25;13.77;;;4.17;;
7047;SDS011;3565;53.254;10.352;2024-03-23T06:21:55;20.60;;;4.73;;
7047;SDS011;3565;53.254;10.352;2024-03-23T06:24:42;16.07;;;4.07;;
7047;SDS011;3565;53.254;10.352;2024-03-23T06:27:13;21.47;;;4.63;;
7047;SDS011;3565;53.254;10.352;2024-03-23T06:32:21;16.37;;;4.37;;
7047;SDS011;3565;53.254;10.352;2024-03-23T06:34:50;16.87;;;4.53;;
7047;SDS011;3565;53.254;10.352;2024-03-23T06:39:56;16.37;;;4.27;;
7047;SDS011;3565;53.254;10.352;2024-03-23T06:42:25;11.43;;;4.93;;
7047;SDS011;3565;53.254;10.352;2024-03-23T06:44:54;15.87;;;4.83;;
7047;SDS011;3565;53.254;10.352;2024-03-23T06:47:23;19.80;;;4.70;;
7047;SDS011;3565;53.254;10.352;2024-03-23T06:52:30;17.43;;;4.50;;
7047;SDS011;3565;53.254;10.352;2024-03-23T06:54:59;15.53;;;4.80;;
7047;SDS011;3565;53.254;10.352;2024-03-23T07:00:11;17.10;;;5.03;;
7047;SDS011;3565;53.254;10.352;2024-03-23T07:02:43;12.33;;;4.90;;
7047;SDS011;3565;53.254;10.352;2024-03-23T07:05:12;16.60;;;5.13;;
7047;SDS011;3565;53.254;10.352;2024-03-23T07:07:41;15.13;;;5.33;;
7047;SDS011;3565;53.254;10.352;2024-03-23T07:12:58;20.47;;;5.30;;
7047;SDS011;3565;53.254;10.352;2024-03-23T07:15:27;13.97;;;5.23;;
7047;SDS011;3565;53.254;10.352;2024-03-23T07:17:56;20.03;;;4.93;;
7047;SDS011;3565;53.254;10.352;2024-03-23T07:20:25;13.60;;;4.83;;
7047;SDS011;3565;53.254;10.352;2024-03-23T07:22:56;19.53;;;5.63;;
7047;SDS011;3565;53.254;10.352;2024-03-23T07:25:26;18.40;;;5.23;;
7047;SDS011;3565;53.254;10.352;2024-03-23T07:30:33;15.83;;;4.50;;
7047;SDS011;3565;53.254;10.352;2024-03-23T07:33:02;13.30;;;4.33;;
7047;SDS011;3565;53.254;10.352;2024-03-23T07:38:08;15.13;;;4.20;;
7047;SDS011;3565;53.254;10.352;2024-03-23T07:40:37;14.73;;;4.20;;
7047;SDS011;3565;53.254;10.352;2024-03-23T07:43:07;12.20;;;4.13;;
7047;SDS011;3565;53.254;10.352;2024-03-23T07:45:36;17.80;;;4.67;;
7047;SDS011;3565;53.254;10.352;2024-03-23T07:48:06;17.67;;;4.47;;
7047;SDS011;3565;53.254;10.352;2024-03-23T07:50:36;14.60;;;4.53;;
7047;SDS011;3565;53.254;10.352;2024-03-23T07:53:05;13.17;;;4.53;;
7047;SDS011;3565;53.254;10.352;2024-03-23T07:55:34;13.93;;;4.43;;
7047;SDS011;3565;53.254;10.352;2024-03-23T07:58:04;16.43;;;4.97;;
7047;SDS011;3565;53.254;10.352;2024-03-23T08:00:33;16.67;;;4.57;;
7047;SDS011;3565;53.254;10.352;2024-03-23T08:03:02;12.97;;;4.17;;
7047;SDS011;3565;53.254;10.352;2024-03-23T08:05:32;13.20;;;3.77;;
7047;SDS011;3565;53.254;10.352;2024-03-23T08:08:01;15.03;;;3.97;;
7047;SDS011;3565;53.254;10.352;2024-03-23T08:10:31;14.67;;;4.13;;
7047;SDS011;3565;53.254;10.352;2024-03-23T08:13:00;12.67;;;3.77;;
7047;SDS011;3565;53.254;10.352;2024-03-23T08:15:30;12.23;;;3.87;;
7047;SDS011;3565;53.254;10.352;2024-03-23T08:20:37;21.47;;;3.93;;
7047;SDS011;3565;53.254;10.352;2024-03-23T08:23:06;11.37;;;3.47;;
7047;SDS011;3565;53.254;10.352;2024-03-23T08:25:36;11.83;;;4.00;;
7047;SDS011;3565;53.254;10.352;2024-03-23T08:28:05;12.07;;;3.27;;
7047;SDS011;3565;53.254;10.352;2024-03-23T08:33:11;10.20;;;3.20;;
7047;SDS011;3565;53.254;10.352;2024-03-23T08:35:40;11.27;;;3.93;;
7047;SDS011;3565;53.254;10.352;2024-03-23T08:38:09;16.17;;;3.33;;
7047;SDS011;3565;53.254;10.352;2024-03-23T08:40:38;14.17;;;3.90;;
7047;SDS011;3565;53.254;10.352;2024-03-23T08:43:07;12.53;;;3.63;;
7047;SDS011;3565;53.254;10.352;2024-03-23T08:45:36;10.80;;;3.43;;
7047;SDS011;3565;53.254;10.352;2024-03-23T08:48:06;10.00;;;3.20;;
7047;SDS011;3565;53.254;10.352;2024-03-23T08:50:35;9.07;;;3.00;;
7047;SDS011;3565;53.254;10.352;2024-03-23T08:53:04;9.53;;;3.30;;
7047;SDS011;3565;53.254;10.352;2024-03-23T08:55:34;13.77;;;3.77;;
7047;SDS011;3565;53.254;10.352;2024-03-23T09:00:40;11.67;;;3.43;;
7047;SDS011;3565;53.254;10.352;2024-03-23T09:03:09;9.43;;;3.07;;
7047;SDS011;3565;53.254;10.352;2024-03-23T09:05:39;13.53;;;3.43;;
7047;SDS011;3565;53.254;10.352;2024-03-23T09:08:09;10.43;;;3.20;;
7047;SDS011;3565;53.254;10.352;2024-03-23T09:10:38;7.07;;;2.80;;
7047;SDS011;3565;53.254;10.352;2024-03-23T09:13:08;9.70;;;3.17;;
7047;SDS011;3565;53.254;10.352;2024-03-23T09:15:44;10.17;;;3.03;;
7047;SDS011;3565;53.254;10.352;2024-03-23T09:18:14;9.10;;;3.00;;
7047;SDS011;3565;53.254;10.352;2024-03-23T09:20:53;9.47;;;3.00;;
7047;SDS011;3565;53.254;10.352;2024-03-23T09:23:21;9.60;;;2.77;;
7047;SDS011;3565;53.254;10.352;2024-03-23T09:25:50;10.20;;;3.07;;
7047;SDS011;3565;53.254;10.352;2024-03-23T09:28:19;9.67;;;3.03;;
7047;SDS011;3565;53.254;10.352;2024-03-23T09:33:26;8.93;;;3.03;;
7047;SDS011;3565;53.254;10.352;2024-03-23T09:35:56;9.87;;;3.00;;
7047;SDS011;3565;53.254;10.352;2024-03-23T09:38:27;11.37;;;2.60;;
7047;SDS011;3565;53.254;10.352;2024-03-23T09:43:33;8.20;;;2.60;;
7047;SDS011;3565;53.254;10.352;2024-03-23T09:46:04;6.70;;;2.23;;
7047;SDS011;3565;53.254;10.352;2024-03-23T09:51:10;5.47;;;2.57;;
7047;SDS011;3565;53.254;10.352;2024-03-23T09:53:39;7.80;;;2.90;;
7047;SDS011;3565;53.254;10.352;2024-03-23T09:56:08;8.03;;;2.37;;
7047;SDS011;3565;53.254;10.352;2024-03-23T10:01:15;10.37;;;2.50;;
7047;SDS011;3565;53.254;10.352;2024-03-23T10:03:44;8.87;;;2.70;;
7047;SDS011;3565;53.254;10.352;2024-03-23T10:06:13;6.73;;;2.23;;
7047;SDS011;3565;53.254;10.352;2024-03-23T10:11:21;7.93;;;2.73;;
7047;SDS011;3565;53.254;10.352;2024-03-23T10:13:51;8.30;;;2.43;;
7047;SDS011;3565;53.254;10.352;2024-03-23T10:16:23;6.83;;;2.30;;
7047;SDS011;3565;53.254;10.352;2024-03-23T10:18:53;6.87;;;2.70;;
7047;SDS011;3565;53.254;10.352;2024-03-23T10:21:31;10.53;;;2.73;;
7047;SDS011;3565;53.254;10.352;2024-03-23T10:24:01;6.07;;;2.20;;
7047;SDS011;3565;53.254;10.352;2024-03-23T10:26:45;9.70;;;2.30;;
7047;SDS011;3565;53.254;10.352;2024-03-23T10:29:27;5.50;;;2.13;;
7047;SDS011;3565;53.254;10.352;2024-03-23T10:32:09;5.23;;;2.00;;
7047;SDS011;3565;53.254;10.352;2024-03-23T10:37:16;8.87;;;2.57;;
7047;SDS011;3565;53.254;10.352;2024-03-23T10:42:23;8.60;;;1.97;;
7047;SDS011;3565;53.254;10.352;2024-03-23T10:44:52;8.00;;;1.90;;
7047;SDS011;3565;53.254;10.352;2024-03-23T10:47:22;9.50;;;2.60;;
7047;SDS011;3565;53.254;10.352;2024-03-23T10:52:28;8.33;;;2.27;;
7047;SDS011;3565;53.254;10.352;2024-03-23T10:54:57;4.73;;;2.20;;
7047;SDS011;3565;53.254;10.352;2024-03-23T10:57:29;4.77;;;2.40;;
7047;SDS011;3565;53.254;10.352;2024-03-23T11:00:10;6.23;;;2.00;;
7047;SDS011;3565;53.254;10.352;2024-03-23T11:05:28;7.27;;;2.40;;
7047;SDS011;3565;53.254;10.352;2024-03-23T11:10:35;4.17;;;2.03;;
7047;SDS011;3565;53.254;10.352;2024-03-23T11:13:21;6.90;;;2.00;;
7047;SDS011;3565;53.254;10.352;2024-03-23T11:15:51;3.60;;;2.20;;
7047;SDS011;3565;53.254;10.352;2024-03-23T11:18:20;5.60;;;2.10;;
7047;SDS011;3565;53.254;10.352;2024-03-23T11:23:27;6.43;;;2.60;;
7047;SDS011;3565;53.254;10.352;2024-03-23T11:25:56;6.80;;;2.70;;
7047;SDS011;3565;53.254;10.352;2024-03-23T11:28:25;4.40;;;2.03;;
7047;SDS011;3565;53.254;10.352;2024-03-23T11:33:31;7.67;;;2.40;;
7047;SDS011;3565;53.254;10.352;2024-03-23T11:36:00;8.07;;;2.33;;
7047;SDS011;3565;53.254;10.352;2024-03-23T11:41:07;4.83;;;2.10;;
7047;SDS011;3565;53.254;10.352;2024-03-23T11:43:37;5.30;;;2.30;;
7047;SDS011;3565;53.254;10.352;2024-03-23T11:46:06;4.57;;;1.80;;
7047;SDS011;3565;53.254;10.352;2024-03-23T11:51:12;8.13;;;2.60;;
7047;SDS011;3565;53.254;10.352;2024-03-23T11:53:42;3.97;;;2.60;;
7047;SDS011;3565;53.254;10.352;2024-03-23T11:56:21;6.43;;;3.10;;
7047;SDS011;3565;53.254;10.352;2024-03-23T12:01:28;9.00;;;2.60;;
7047;SDS011;3565;53.254;10.352;2024-03-23T12:03:57;5.50;;;2.50;;
7047;SDS011;3565;53.254;10.352;2024-03-23T12:06:26;3.03;;;2.27;;
7047;SDS011;3565;53.254;10.352;2024-03-23T12:11:32;4.63;;;2.37;;
7047;SDS011;3565;53.254;10.352;2024-03-23T12:14:01;5.13;;;2.60;;
7047;SDS011;3565;53.254;10.352;2024-03-23T12:16:30;7.90;;;2.60;;
7047;SDS011;3565;53.254;10.352;2024-03-23T12:21:36;7.40;;;2.57;;
7047;SDS011;3565;53.254;10.352;2024-03-23T12:24:06;6.13;;;2.77;;
7047;SDS011;3565;53.254;10.352;2024-03-23T12:26:36;4.80;;;2.50;;
7047;SDS011;3565;53.254;10.352;2024-03-23T12:31:43;4.17;;;3.13;;
7047;SDS011;3565;53.254;10.352;2024-03-23T12:34:12;5.30;;;2.37;;
7047;SDS011;3565;53.254;10.352;2024-03-23T12:36:41;6.43;;;2.80;;
7047;SDS011;3565;53.254;10.352;2024-03-23T12:39:12;5.57;;;2.87;;
7047;SDS011;3565;53.254;10.352;2024-03-23T12:41:50;6.33;;;3.10;;
7047;SDS011;3565;53.254;10.352;2024-03-23T12:44:19;6.47;;;2.83;;
7047;SDS011;3565;53.254;10.352;2024-03-23T12:46:48;5.63;;;2.50;;
7047;SDS011;3565;53.254;10.352;2024-03-23T12:49:17;6.33;;;3.00;;
7047;SDS011;3565;53.254;10.352;2024-03-23T12:54:23;6.43;;;2.90;;
7047;SDS011;3565;53.254;10.352;2024-03-23T12:56:52;5.43;;;2.33;;
7047;SDS011;3565;53.254;10.352;2024-03-23T12:59:22;5.13;;;2.73;;
7047;SDS011;3565;53.254;10.352;2024-03-23T13:04:28;5.70;;;3.60;;
7047;SDS011;3565;53.254;10.352;2024-03-23T13:06:58;5.87;;;3.43;;
7047;SDS011;3565;53.254;10.352;2024-03-23T13:12:05;4.17;;;2.60;;
7047;SDS011;3565;53.254;10.352;2024-03-23T13:14:35;2.93;;;2.40;;
7047;SDS011;3565;53.254;10.352;2024-03-23T13:17:04;7.57;;;3.30;;
7047;SDS011;3565;53.254;10.352;2024-03-23T13:22:12;3.90;;;1.93;;
7047;SDS011;3565;53.254;10.352;2024-03-23T13:24:43;4.90;;;2.13;;
7047;SDS011;3565;53.254;10.352;2024-03-23T13:27:11;3.20;;;2.00;;
7047;SDS011;3565;53.254;10.352;2024-03-23T13:29:40;3.17;;;2.07;;
7047;SDS011;3565;53.254;10.352;2024-03-23T13:32:19;2.53;;;1.73;;
7047;SDS011;3565;53.254;10.352;2024-03-23T13:34:48;3.63;;;2.37;;
7047;SDS011;3565;53.254;10.352;2024-03-23T13:37:17;10.30;;;2.20;;
7047;SDS011;3565;53.254;10.352;2024-03-23T13:42:23;2.97;;;2.17;;
7047;SDS011;3565;53.254;10.352;2024-03-23T13:44:52;5.47;;;2.50;;
7047;SDS011;3565;53.254;10.352;2024-03-23T13:47:32;4.87;;;2.53;;
7047;SDS011;3565;53.254;10.352;2024-03-23T13:52:38;6.47;;;3.00;;
7047;SDS011;3565;53.254;10.352;2024-03-23T13:55:07;5.53;;;2.40;;
7047;SDS011;3565;53.254;10.352;2024-03-23T13:57:38;5.60;;;2.30;;
7047;SDS011;3565;53.254;10.352;2024-03-23T14:00:08;3.07;;;2.10;;
7047;SDS011;3565;53.254;10.352;2024-03-23T14:05:17;2.37;;;1.80;;
7047;SDS011;3565;53.254;10.352;2024-03-23T14:07:46;3.17;;;1.73;;
7047;SDS011;3565;53.254;10.352;2024-03-23T14:12:53;3.30;;;1.60;;
7047;SDS011;3565;53.254;10.352;2024-03-23T14:15:23;3.27;;;2.20;;
7047;SDS011;3565;53.254;10.352;2024-03-23T14:20:31;3.23;;;1.60;;
7047;SDS011;3565;53.254;10.352;2024-03-23T14:22:59;2.17;;;1.77;;
7047;SDS011;3565;53.254;10.352;2024-03-23T14:25:30;3.07;;;1.73;;
7047;SDS011;3565;53.254;10.352;2024-03-23T14:30:36;3.13;;;1.97;;
7047;SDS011;3565;53.254;10.352;2024-03-23T14:33:05;6.07;;;2.07;;
7047;SDS011;3565;53.254;10.352;2024-03-23T14:35:34;3.07;;;1.80;;
7047;SDS011;3565;53.254;10.352;2024-03-23T14:38:12;4.00;;;1.77;;
7047;SDS011;3565;53.254;10.352;2024-03-23T14:43:19;1.97;;;1.80;;
7047;SDS011;3565;53.254;10.352;2024-03-23T14:46:07;2.27;;;1.63;;
7047;SDS011;3565;53.254;10.352;2024-03-23T14:51:15;2.20;;;1.70;;
7047;SDS011;3565;53.254;10.352;2024-03-23T14:53:45;2.37;;;1.60;;
7047;SDS011;3565;53.254;10.352;2024-03-23T14:56:23;1.70;;;1.60;;
7047;SDS011;3565;53.254;10.352;2024-03-23T15:01:30;1.93;;;1.63;;
7047;SDS011;3565;53.254;10.352;2024-03-23T15:03:59;2.73;;;1.90;;
7047;SDS011;3565;53.254;10.352;2024-03-23T15:06:29;1.57;;;1.40;;
7047;SDS011;3565;53.254;10.352;2024-03-23T15:11:36;3.37;;;1.87;;
7047;SDS011;3565;53.254;10.352;2024-03-23T15:14:06;2.93;;;2.03;;
7047;SDS011;3565;53.254;10.352;2024-03-23T15:16:37;5.13;;;1.90;;
7047;SDS011;3565;53.254;10.352;2024-03-23T15:21:43;2.47;;;1.90;;
7047;SDS011;3565;53.254;10.352;2024-03-23T15:24:12;3.70;;;1.70;;
7047;SDS011;3565;53.254;10.352;2024-03-23T15:26:41;3.03;;;1.57;;
7047;SDS011;3565;53.254;10.352;2024-03-23T15:29:10;5.50;;;2.10;;
7047;SDS011;3565;53.254;10.352;2024-03-23T15:34:18;2.73;;;1.73;;
7047;SDS011;3565;53.254;10.352;2024-03-23T15:36:48;3.30;;;1.57;;
7047;SDS011;3565;53.254;10.352;2024-03-23T15:39:17;4.77;;;1.83;;
7047;SDS011;3565;53.254;10.352;2024-03-23T15:44:25;4.23;;;1.77;;
7047;SDS011;3565;53.254;10.352;2024-03-23T15:46:54;2.17;;;1.57;;
7047;SDS011;3565;53.254;10.352;2024-03-23T15:49:23;4.23;;;1.70;;
7047;SDS011;3565;53.254;10.352;2024-03-23T15:52:01;1.90;;;1.70;;
7047;SDS011;3565;53.254;10.352;2024-03-23T15:54:30;3.00;;;1.80;;
7047;SDS011;3565;53.254;10.352;2024-03-23T15:56:59;2.37;;;1.90;;
7047;SDS011;3565;53.254;10.352;2024-03-23T15:59:28;2.87;;;1.83;;
7047;SDS011;3565;53.254;10.352;2024-03-23T16:04:35;3.23;;;1.90;;
7047;SDS011;3565;53.254;10.352;2024-03-23T16:07:04;2.20;;;2.00;;
7047;SDS011;3565;53.254;10.352;2024-03-23T16:09:32;2.33;;;1.93;;
7047;SDS011;3565;53.254;10.352;2024-03-23T16:14:40;3.10;;;2.00;;
7047;SDS011;3565;53.254;10.352;2024-03-23T16:17:09;2.30;;;1.67;;
7047;SDS011;3565;53.254;10.352;2024-03-23T16:22:16;4.00;;;1.67;;
7047;SDS011;3565;53.254;10.352;2024-03-23T16:24:45;2.10;;;1.77;;
7047;SDS011;3565;53.254;10.352;2024-03-23T16:27:14;4.00;;;1.50;;
7047;SDS011;3565;53.254;10.352;2024-03-23T16:29:53;3.30;;;1.70;;
7047;SDS011;3565;53.254;10.352;2024-03-23T16:32:22;3.27;;;2.10;;
7047;SDS011;3565;53.254;10.352;2024-03-23T16:37:28;1.90;;;1.80;;
7047;SDS011;3565;53.254;10.352;2024-03-23T16:42:34;5.17;;;2.27;;
7047;SDS011;3565;53.254;10.352;2024-03-23T16:45:05;3.87;;;2.00;;
7047;SDS011;3565;53.254;10.352;2024-03-23T16:47:44;4.53;;;2.33;;
7047;SDS011;3565;53.254;10.352;2024-03-23T16:50:13;2.83;;;2.30;;
7047;SDS011;3565;53.254;10.352;2024-03-23T16:52:52;6.63;;;2.40;;
7047;SDS011;3565;53.254;10.352;2024-03-23T16:55:21;2.97;;;1.90;;
7047;SDS011;3565;53.254;10.352;2024-03-23T17:00:27;1.60;;;1.50;;
7047;SDS011;3565;53.254;10.352;2024-03-23T17:02:56;4.07;;;2.00;;
7047;SDS011;3565;53.254;10.352;2024-03-23T17:05:25;6.60;;;3.07;;
7047;SDS011;3565;53.254;10.352;2024-03-23T17:10:31;2.63;;;1.80;;
7047;SDS011;3565;53.254;10.352;2024-03-23T17:13:00;7.83;;;2.20;;
7047;SDS011;3565;53.254;10.352;2024-03-23T17:15:29;3.07;;;2.20;;
7047;SDS011;3565;53.254;10.352;2024-03-23T17:20:36;3.63;;;2.30;;
7047;SDS011;3565;53.254;10.352;2024-03-23T17:23:05;5.03;;;2.30;;
7047;SDS011;3565;53.254;10.352;2024-03-23T17:25:34;3.93;;;1.97;;
7047;SDS011;3565;53.254;10.352;2024-03-23T17:30:40;3.67;;;2.10;;
7047;SDS011;3565;53.254;10.352;2024-03-23T17:33:09;4.43;;;3.10;;
7047;SDS011;3565;53.254;10.352;2024-03-23T17:35:38;4.67;;;3.00;;
7047;SDS011;3565;53.254;10.352;2024-03-23T17:40:44;6.17;;;2.80;;
7047;SDS011;3565;53.254;10.352;2024-03-23T17:43:15;6.17;;;3.23;;
7047;SDS011;3565;53.254;10.352;2024-03-23T17:45:43;8.50;;;4.10;;
7047;SDS011;3565;53.254;10.352;2024-03-23T17:48:12;7.43;;;3.87;;
7047;SDS011;3565;53.254;10.352;2024-03-23T17:53:18;3.17;;;2.67;;
7047;SDS011;3565;53.254;10.352;2024-03-23T17:55:48;4.80;;;2.67;;
7047;SDS011;3565;53.254;10.352;2024-03-23T17:58:16;5.03;;;2.60;;
7047;SDS011;3565;53.254;10.352;2024-03-23T18:00:55;6.00;;;3.37;;
7047;SDS011;3565;53.254;10.352;2024-03-23T18:03:24;6.10;;;3.70;;
7047;SDS011;3565;53.254;10.352;2024-03-23T18:05:53;3.20;;;2.70;;
7047;SDS011;3565;53.254;10.352;2024-03-23T18:11:06;4.23;;;2.40;;
7047;SDS011;3565;53.254;10.352;2024-03-23T18:13:36;4.10;;;2.43;;
7047;SDS011;3565;53.254;10.352;2024-03-23T18:16:14;2.60;;;2.30;;
7047;SDS011;3565;53.254;10.352;2024-03-23T18:21:22;3.73;;;2.37;;
7047;SDS011;3565;53.254;10.352;2024-03-23T18:23:51;3.63;;;2.60;;
7047;SDS011;3565;53.254;10.352;2024-03-23T18:26:20;6.80;;;3.00;;
7047;SDS011;3565;53.254;10.352;2024-03-23T18:31:27;7.60;;;3.33;;
7047;SDS011;3565;53.254;10.352;2024-03-23T18:33:56;7.93;;;3.40;;
7047;SDS011;3565;53.254;10.352;2024-03-23T18:36:27;4.33;;;3.07;;
7047;SDS011;3565;53.254;10.352;2024-03-23T18:41:33;5.27;;;3.50;;
7047;SDS011;3565;53.254;10.352;2024-03-23T18:44:02;5.97;;;4.63;;
7047;SDS011;3565;53.254;10.352;2024-03-23T18:46:32;5.83;;;4.17;;
7047;SDS011;3565;53.254;10.352;2024-03-23T18:49:01;5.47;;;3.73;;
7047;SDS011;3565;53.254;10.352;2024-03-23T18:54:07;5.90;;;4.10;;
7047;SDS011;3565;53.254;10.352;2024-03-23T18:56:36;8.97;;;4.27;;
7047;SDS011;3565;53.254;10.352;2024-03-23T18:59:05;12.57;;;5.63;;
7047;SDS011;3565;53.254;10.352;2024-03-23T19:01:35;8.97;;;4.67;;
7047;SDS011;3565;53.254;10.352;2024-03-23T19:04:04;9.53;;;3.97;;
7047;SDS011;3565;53.254;10.352;2024-03-23T19:06:43;5.80;;;3.67;;
7047;SDS011;3565;53.254;10.352;2024-03-23T19:09:12;7.27;;;3.80;;
7047;SDS011;3565;53.254;10.352;2024-03-23T19:11:41;6.90;;;4.00;;
7047;SDS011;3565;53.254;10.352;2024-03-23T19:14:10;6.17;;;3.93;;
7047;SDS011;3565;53.254;10.352;2024-03-23T19:16:40;7.90;;;4.33;;
7047;SDS011;3565;53.254;10.352;2024-03-23T19:19:10;8.37;;;4.97;;
7047;SDS011;3565;53.254;10.352;2024-03-23T19:24:17;5.43;;;3.20;;
7047;SDS011;3565;53.254;10.352;2024-03-23T19:26:46;8.57;;;3.40;;
7047;SDS011;3565;53.254;10.352;2024-03-23T19:29:15;4.77;;;3.50;;
7047;SDS011;3565;53.254;10.352;2024-03-23T19:31:44;5.97;;;3.90;;
7047;SDS011;3565;53.254;10.352;2024-03-23T19:34:13;3.87;;;3.40;;
7047;SDS011;3565;53.254;10.352;2024-03-23T19:36:42;7.60;;;3.70;;
7047;SDS011;3565;53.254;10.352;2024-03-23T19:39:11;4.47;;;3.50;;
7047;SDS011;3565;53.254;10.352;2024-03-23T19:41:40;4.33;;;3.30;;
7047;SDS011;3565;53.254;10.352;2024-03-23T19:46:49;7.70;;;3.17;;
7047;SDS011;3565;53.254;10.352;2024-03-23T19:49:19;5.17;;;3.13;;
7047;SDS011;3565;53.254;10.352;2024-03-23T19:54:29;5.43;;;3.20;;
7047;SDS011;3565;53.254;10.352;2024-03-23T19:56:59;8.13;;;3.63;;
7047;SDS011;3565;53.254;10.352;2024-03-23T19:59:28;8.37;;;3.43;;
7047;SDS011;3565;53.254;10.352;2024-03-23T20:01:58;6.03;;;3.07;;
7047;SDS011;3565;53.254;10.352;2024-03-23T20:04:27;5.23;;;2.50;;
7047;SDS011;3565;53.254;10.352;2024-03-23T20:07:06;4.57;;;2.53;;
7047;SDS011;3565;53.254;10.352;2024-03-23T20:09:38;3.33;;;2.43;;
7047;SDS011;3565;53.254;10.352;2024-03-23T20:14:46;4.40;;;2.70;;